VDKC weather

Kompong Cham Airport
Kompong Cham, Kampong Chaam, Cambodia

Public forecast

Using degrees Celsius for public forecast. Weather courtesy of forecast.io.

METAR (pilot weather report)

Closest report is Phnom Penh International Airport, 45.3 nm (83.9 km) SW. Retrieved 2019/02/16 14:00 UTC (4 minutes ago):

VDPP 161400Z 16004KT 110V180 9000 FEW017 29/20 Q1011

TAF (pilot weather forecast)

Closest forecast is Phnom Penh International Airport, 45.3 nm (83.9 km) SW. Retrieved 2019/02/16 12:00 UTC (2 hours ago):

TAF VDPP 161100Z 1612/1706 17007KT 9999 SCT017